createdAt,value
2023-05-05T00:04:08.294Z,12.70
2023-05-05T00:09:10.925Z,10.60
2023-05-05T00:14:14.162Z,13.75
2023-05-05T00:19:16.714Z,15.60
2023-05-05T00:24:20.988Z,15.40
2023-05-05T00:29:23.504Z,15.15
2023-05-05T00:34:26.171Z,15.80
2023-05-05T00:39:28.946Z,19.80
2023-05-05T00:44:38.566Z,21.98
2023-05-05T00:49:41.597Z,22.77
2023-05-05T00:54:44.398Z,22.23
2023-05-05T00:59:47.126Z,22.13
2023-05-05T01:04:54.491Z,23.47
2023-05-05T01:10:19.675Z,16.33
2023-05-05T01:15:33.706Z,17.23
2023-05-05T01:20:46.075Z,15.80
2023-05-05T01:25:55.039Z,18.30
2023-05-05T01:30:57.646Z,17.08
2023-05-05T01:36:12.373Z,13.27
2023-05-05T01:41:22.407Z,24.90
2023-05-05T01:46:25.638Z,20.58
2023-05-05T01:51:29.471Z,18.60
2023-05-05T01:56:33.254Z,16.17
2023-05-05T02:01:39.723Z,23.73
2023-05-05T02:06:44.792Z,11.77
2023-05-05T02:11:47.786Z,13.70
2023-05-05T02:16:50.913Z,11.73
2023-05-05T02:21:55.864Z,10.90
2023-05-05T02:27:00.853Z,14.15
2023-05-05T02:32:07.580Z,13.03
2023-05-05T02:37:12.939Z,10.68
2023-05-05T02:42:22.072Z,10.77
2023-05-05T02:47:36.976Z,16.77
2023-05-05T02:52:43.522Z,9.48
2023-05-05T02:57:56.903Z,9.50
2023-05-05T03:03:18.209Z,10.15
2023-05-05T03:08:32.128Z,9.05
2023-05-05T03:13:43.256Z,9.87
2023-05-05T03:18:52.864Z,12.45
2023-05-05T03:23:57.430Z,14.52
2023-05-05T03:29:00.153Z,12.57
2023-05-05T03:34:06.617Z,19.67
2023-05-05T03:39:15.016Z,14.03
2023-05-05T03:44:17.590Z,12.27
2023-05-05T03:49:20.420Z,11.65
2023-05-05T03:54:24.287Z,16.20
2023-05-05T03:59:28.682Z,13.27
2023-05-05T04:04:31.904Z,14.18
2023-05-05T04:09:34.368Z,12.80
2023-05-05T04:14:37.114Z,13.43
2023-05-05T04:19:40.334Z,11.38
2023-05-05T04:24:44.033Z,15.00
2023-05-05T04:29:46.733Z,13.93
2023-05-05T04:34:49.669Z,18.80
2023-05-05T04:39:53.362Z,14.68
2023-05-05T04:44:57.008Z,15.07
2023-05-05T04:50:00.009Z,12.53
2023-05-05T04:55:04.722Z,17.88
2023-05-05T05:00:10.056Z,20.52
2023-05-05T05:05:13.272Z,19.30
2023-05-05T05:10:15.765Z,19.48
2023-05-05T05:15:21.005Z,17.52
2023-05-05T05:20:23.599Z,16.67
2023-05-05T05:25:26.412Z,14.03
2023-05-05T05:30:29.373Z,21.60
2023-05-05T05:35:32.555Z,20.42
2023-05-05T05:40:35.224Z,17.83
2023-05-05T05:45:38.161Z,15.27
2023-05-05T05:50:42.410Z,24.55
2023-05-05T05:55:48.505Z,25.30
2023-05-05T06:00:51.823Z,27.40
2023-05-05T06:05:54.986Z,27.85
2023-05-05T06:10:58.173Z,29.47
2023-05-05T06:16:00.957Z,25.60
2023-05-05T06:21:03.984Z,28.33
2023-05-05T06:26:10.180Z,29.90
2023-05-05T06:31:14.553Z,26.23
2023-05-05T06:36:17.025Z,24.63
2023-05-05T06:41:19.569Z,23.95
2023-05-05T06:46:22.393Z,24.40
2023-05-05T06:51:24.946Z,24.10
2023-05-05T06:56:27.485Z,22.25
2023-05-05T07:01:29.938Z,16.87
2023-05-05T07:06:33.049Z,20.67
2023-05-05T07:11:35.502Z,21.15
2023-05-05T07:16:38.385Z,22.70
2023-05-05T07:21:43.899Z,26.00
2023-05-05T07:26:47.396Z,17.15
2023-05-05T07:31:49.900Z,20.75
2023-05-05T07:36:56.555Z,18.23
2023-05-05T07:41:59.180Z,17.40
2023-05-05T07:47:01.682Z,21.48
2023-05-05T07:52:04.355Z,23.37
2023-05-05T07:57:06.918Z,19.70
2023-05-05T08:02:10.865Z,24.25
2023-05-05T08:07:13.271Z,27.38
2023-05-05T08:12:18.108Z,24.13
2023-05-05T08:17:20.890Z,22.17
2023-05-05T08:22:23.432Z,25.02
2023-05-05T08:27:26.046Z,20.83
2023-05-05T08:32:29.827Z,22.60
2023-05-05T08:37:33.097Z,20.15
2023-05-05T08:42:39.708Z,19.57
2023-05-05T08:47:43.634Z,23.20
2023-05-05T08:52:54.094Z,22.08
2023-05-05T08:58:17.636Z,15.10
2023-05-05T09:03:21.122Z,21.47
2023-05-05T09:08:23.846Z,20.77
2023-05-05T09:13:26.394Z,21.45
2023-05-05T09:18:29.688Z,19.73
2023-05-05T09:23:35.039Z,17.70
2023-05-05T09:28:37.864Z,19.23
2023-05-05T09:33:40.526Z,24.27
2023-05-05T09:39:06.690Z,18.30
2023-05-05T09:44:09.686Z,21.38
2023-05-05T09:49:19.879Z,20.30
2023-05-05T09:54:27.088Z,15.23
2023-05-05T10:04:49.795Z,18.73
2023-05-05T10:09:52.378Z,19.90
2023-05-05T10:15:01.415Z,14.43
2023-05-05T10:20:13.228Z,13.02
2023-05-05T10:25:18.107Z,14.10
2023-05-05T10:30:24.765Z,20.03
2023-05-05T10:35:30.073Z,17.80
2023-05-05T10:40:33.273Z,15.85
2023-05-05T10:45:37.630Z,13.23
2023-05-05T10:50:58.718Z,17.55
2023-05-05T10:56:14.404Z,14.27
2023-05-05T11:01:30.784Z,14.37
2023-05-05T11:06:33.413Z,13.27
2023-05-05T11:12:05.700Z,12.60
2023-05-05T11:17:54.326Z,12.83
2023-05-05T11:23:03.613Z,14.47
2023-05-05T11:28:14.593Z,13.88
2023-05-05T11:33:31.373Z,13.00
2023-05-05T11:39:00.744Z,13.67
2023-05-05T11:44:16.634Z,17.10
2023-05-05T11:49:30.251Z,19.02
2023-05-05T11:54:35.184Z,12.13
2023-05-05T11:59:57.856Z,12.98
2023-05-05T12:05:03.696Z,17.27
2023-05-05T12:10:07.775Z,21.40
2023-05-05T12:15:10.662Z,16.40
2023-05-05T12:20:13.789Z,12.30
2023-05-05T12:25:17.232Z,14.20
2023-05-05T12:30:20.385Z,19.27
2023-05-05T12:35:22.990Z,19.98
2023-05-05T12:40:50.081Z,14.27
2023-05-05T12:46:06.405Z,17.97
2023-05-05T12:51:17.047Z,14.55
2023-05-05T12:56:37.199Z,18.90
2023-05-05T13:01:51.891Z,17.33
2023-05-05T13:07:12.440Z,18.80
2023-05-05T13:12:18.935Z,15.40
2023-05-05T13:17:21.564Z,17.05
2023-05-05T13:22:24.340Z,16.23
2023-05-05T13:27:27.395Z,18.55
2023-05-05T13:32:29.955Z,19.98
2023-05-05T13:37:32.635Z,20.13
2023-05-05T13:42:35.329Z,16.98
2023-05-05T13:47:38.366Z,21.95
2023-05-05T13:52:42.111Z,22.40
2023-05-05T13:57:45.589Z,22.70
2023-05-05T14:02:48.472Z,16.75
2023-05-05T14:07:51.002Z,20.10
2023-05-05T14:12:53.804Z,27.00
2023-05-05T14:17:56.826Z,25.30
2023-05-05T14:22:59.447Z,30.77
2023-05-05T14:28:02.101Z,16.87
2023-05-05T14:33:04.736Z,30.25
2023-05-05T14:38:07.290Z,45.25
2023-05-05T14:43:09.810Z,55.50
2023-05-05T14:48:12.552Z,382.20
2023-05-05T14:53:15.544Z,311.67
2023-05-05T14:58:22.588Z,178.65
2023-05-05T15:03:25.513Z,31.87
2023-05-05T15:08:28.247Z,19.55
2023-05-05T15:13:31.621Z,22.10
2023-05-05T15:18:34.575Z,24.33
2023-05-05T15:23:37.336Z,26.35
2023-05-05T15:28:39.919Z,29.20
2023-05-05T15:33:44.899Z,19.63
2023-05-05T15:38:47.597Z,16.57
2023-05-05T15:43:50.191Z,20.98
2023-05-05T15:48:52.717Z,16.08
2023-05-05T15:53:55.335Z,17.50
2023-05-05T15:58:57.930Z,18.75
2023-05-05T16:04:01.546Z,15.00
2023-05-05T16:09:04.358Z,16.40
2023-05-05T16:14:06.946Z,13.93
2023-05-05T16:19:09.576Z,16.90
2023-05-05T16:24:17.044Z,18.57
2023-05-05T16:29:19.654Z,17.00
2023-05-05T16:34:22.414Z,14.52
2023-05-05T16:39:24.993Z,12.65
2023-05-05T16:44:27.722Z,16.87
2023-05-05T16:49:30.808Z,20.10
2023-05-05T16:59:56.396Z,16.23
2023-05-05T17:04:59.063Z,18.45
2023-05-05T17:10:02.483Z,16.05
2023-05-05T17:15:07.155Z,19.40
2023-05-05T17:20:10.388Z,15.00
2023-05-05T17:25:12.946Z,16.25
2023-05-05T17:30:16.070Z,17.50
2023-05-05T17:35:20.260Z,14.67
2023-05-05T17:40:23.154Z,19.00
2023-05-05T17:45:25.930Z,17.90
2023-05-05T17:50:28.529Z,26.70
2023-05-05T17:55:31.335Z,50.47
2023-05-05T18:00:34.078Z,63.08
2023-05-05T18:05:38.855Z,53.33
2023-05-05T18:10:43.425Z,40.73
2023-05-05T18:15:45.976Z,40.75
2023-05-05T18:20:52.207Z,40.88
2023-05-05T18:25:54.750Z,33.10
2023-05-05T18:30:57.452Z,39.08
2023-05-05T18:36:00.099Z,34.17
2023-05-05T18:41:02.730Z,33.10
2023-05-05T18:46:05.542Z,37.13
2023-05-05T18:51:08.186Z,36.63
2023-05-05T18:56:10.820Z,31.50
2023-05-05T19:01:13.473Z,31.77
2023-05-05T19:06:16.686Z,27.13
2023-05-05T19:11:19.473Z,27.23
2023-05-05T19:16:22.370Z,27.73
2023-05-05T19:21:27.582Z,27.67
2023-05-05T19:26:30.527Z,22.70
2023-05-05T19:31:33.135Z,20.33
2023-05-05T19:36:36.146Z,23.92
2023-05-05T19:41:38.724Z,23.27
2023-05-05T19:46:41.450Z,25.33
2023-05-05T19:51:46.440Z,21.23
2023-05-05T19:56:49.277Z,24.23
2023-05-05T20:01:52.191Z,16.52
2023-05-05T20:06:55.101Z,24.27
2023-05-05T20:11:59.229Z,26.02
2023-05-05T20:17:01.793Z,21.75
2023-05-05T20:22:04.715Z,22.00
2023-05-05T20:27:07.677Z,19.17
2023-05-05T20:32:10.201Z,23.42
2023-05-05T20:37:14.035Z,19.17
2023-05-05T20:42:16.765Z,23.10
2023-05-05T20:47:19.417Z,19.80
2023-05-05T20:52:22.039Z,20.90
2023-05-05T20:57:24.828Z,21.87
2023-05-05T21:02:27.611Z,22.33
2023-05-05T21:07:33.387Z,21.80
2023-05-05T21:12:40.273Z,24.87
2023-05-05T21:17:43.125Z,28.92
2023-05-05T21:22:48.289Z,31.07
2023-05-05T21:27:51.018Z,28.13
2023-05-05T21:32:53.768Z,24.90
2023-05-05T21:37:56.650Z,24.05
2023-05-05T21:42:59.266Z,38.80
2023-05-05T21:48:02.094Z,35.17
2023-05-05T21:53:04.972Z,38.57
2023-05-05T21:58:07.473Z,41.97
2023-05-05T22:03:10.152Z,41.22
2023-05-05T22:08:12.885Z,38.90
2023-05-05T22:13:15.579Z,32.47
2023-05-05T22:18:18.225Z,33.10
2023-05-05T22:23:20.874Z,30.23
2023-05-05T22:28:25.692Z,23.50
2023-05-05T22:33:28.757Z,32.33
2023-05-05T22:38:32.686Z,28.67
2023-05-05T22:43:38.223Z,28.37
2023-05-05T22:48:40.949Z,31.27
2023-05-05T22:53:43.515Z,27.57
2023-05-05T22:58:47.151Z,25.55
2023-05-05T23:03:50.149Z,28.25
2023-05-05T23:08:52.929Z,26.40
2023-05-05T23:13:55.530Z,26.80
2023-05-05T23:18:58.060Z,27.95
2023-05-05T23:24:02.998Z,32.70
2023-05-05T23:29:06.236Z,35.00
2023-05-05T23:34:08.951Z,30.93
2023-05-05T23:39:11.683Z,30.77
2023-05-05T23:44:14.262Z,30.60
2023-05-05T23:49:16.823Z,25.87
2023-05-05T23:54:20.036Z,26.30
2023-05-05T23:59:25.251Z,25.05
